sensor_id;sensor_type;location;lat;lon;timestamp;P1;durP1;ratioP1;P2;durP2;ratioP2
3747;SDS011;1889;50.058;8.688;2022-07-06T00:02:01;3.27;;;1.77;;
3747;SDS011;1889;50.058;8.688;2022-07-06T00:04:31;2.70;;;1.33;;
3747;SDS011;1889;50.058;8.688;2022-07-06T00:07:00;2.97;;;1.93;;
3747;SDS011;1889;50.058;8.688;2022-07-06T00:09:29;4.47;;;2.00;;
3747;SDS011;1889;50.058;8.688;2022-07-06T00:11:58;2.70;;;1.77;;
3747;SDS011;1889;50.058;8.688;2022-07-06T00:14:27;2.17;;;1.90;;
3747;SDS011;1889;50.058;8.688;2022-07-06T00:16:56;2.10;;;1.80;;
3747;SDS011;1889;50.058;8.688;2022-07-06T00:19:25;2.83;;;1.93;;
3747;SDS011;1889;50.058;8.688;2022-07-06T00:21:54;8.00;;;2.10;;
3747;SDS011;1889;50.058;8.688;2022-07-06T00:24:23;3.97;;;2.07;;
3747;SDS011;1889;50.058;8.688;2022-07-06T00:26:52;3.60;;;2.20;;
3747;SDS011;1889;50.058;8.688;2022-07-06T00:29:21;2.83;;;2.07;;
3747;SDS011;1889;50.058;8.688;2022-07-06T00:31:50;2.40;;;1.87;;
3747;SDS011;1889;50.058;8.688;2022-07-06T00:34:19;5.97;;;1.93;;
3747;SDS011;1889;50.058;8.688;2022-07-06T00:36:48;2.10;;;2.00;;
3747;SDS011;1889;50.058;8.688;2022-07-06T00:39:18;3.83;;;2.40;;
3747;SDS011;1889;50.058;8.688;2022-07-06T00:41:49;2.73;;;1.90;;
3747;SDS011;1889;50.058;8.688;2022-07-06T00:44:18;3.20;;;1.97;;
3747;SDS011;1889;50.058;8.688;2022-07-06T00:46:47;3.63;;;2.43;;
3747;SDS011;1889;50.058;8.688;2022-07-06T00:49:16;2.90;;;2.00;;
3747;SDS011;1889;50.058;8.688;2022-07-06T00:52:02;5.43;;;2.07;;
3747;SDS011;1889;50.058;8.688;2022-07-06T00:54:31;2.70;;;2.17;;
3747;SDS011;1889;50.058;8.688;2022-07-06T00:57:02;2.93;;;2.63;;
3747;SDS011;1889;50.058;8.688;2022-07-06T00:59:31;3.10;;;2.67;;
3747;SDS011;1889;50.058;8.688;2022-07-06T01:02:01;4.43;;;1.93;;
3747;SDS011;1889;50.058;8.688;2022-07-06T01:04:30;6.00;;;2.23;;
3747;SDS011;1889;50.058;8.688;2022-07-06T01:07:00;4.73;;;2.70;;
3747;SDS011;1889;50.058;8.688;2022-07-06T01:09:29;2.30;;;2.10;;
3747;SDS011;1889;50.058;8.688;2022-07-06T01:11:59;3.30;;;2.10;;
3747;SDS011;1889;50.058;8.688;2022-07-06T01:14:28;3.10;;;2.23;;
3747;SDS011;1889;50.058;8.688;2022-07-06T01:16:57;2.73;;;2.23;;
3747;SDS011;1889;50.058;8.688;2022-07-06T01:19:26;2.93;;;2.13;;
3747;SDS011;1889;50.058;8.688;2022-07-06T01:21:55;4.97;;;2.37;;
3747;SDS011;1889;50.058;8.688;2022-07-06T01:24:24;2.40;;;1.97;;
3747;SDS011;1889;50.058;8.688;2022-07-06T01:26:53;3.83;;;2.17;;
3747;SDS011;1889;50.058;8.688;2022-07-06T01:29:23;3.30;;;2.30;;
3747;SDS011;1889;50.058;8.688;2022-07-06T01:31:52;3.20;;;2.30;;
3747;SDS011;1889;50.058;8.688;2022-07-06T01:34:21;2.95;;;1.70;;
3747;SDS011;1889;50.058;8.688;2022-07-06T01:36:51;2.87;;;2.25;;
3747;SDS011;1889;50.058;8.688;2022-07-06T01:39:20;4.03;;;2.23;;
3747;SDS011;1889;50.058;8.688;2022-07-06T01:41:49;6.70;;;2.93;;
3747;SDS011;1889;50.058;8.688;2022-07-06T01:44:18;1.87;;;1.70;;
3747;SDS011;1889;50.058;8.688;2022-07-06T01:46:47;3.35;;;1.98;;
3747;SDS011;1889;50.058;8.688;2022-07-06T01:49:17;4.80;;;2.08;;
3747;SDS011;1889;50.058;8.688;2022-07-06T01:51:46;2.72;;;1.95;;
3747;SDS011;1889;50.058;8.688;2022-07-06T01:54:15;2.33;;;1.87;;
3747;SDS011;1889;50.058;8.688;2022-07-06T01:56:45;4.45;;;2.10;;
3747;SDS011;1889;50.058;8.688;2022-07-06T01:59:14;4.37;;;1.90;;
3747;SDS011;1889;50.058;8.688;2022-07-06T02:01:43;3.33;;;1.80;;
3747;SDS011;1889;50.058;8.688;2022-07-06T02:04:12;3.43;;;1.93;;
3747;SDS011;1889;50.058;8.688;2022-07-06T02:06:41;1.93;;;1.70;;
3747;SDS011;1889;50.058;8.688;2022-07-06T02:09:10;3.47;;;2.20;;
3747;SDS011;1889;50.058;8.688;2022-07-06T02:11:39;3.57;;;2.03;;
3747;SDS011;1889;50.058;8.688;2022-07-06T02:14:09;3.65;;;2.25;;
3747;SDS011;1889;50.058;8.688;2022-07-06T02:16:38;1.90;;;1.80;;
3747;SDS011;1889;50.058;8.688;2022-07-06T02:19:07;2.83;;;2.00;;
3747;SDS011;1889;50.058;8.688;2022-07-06T02:21:37;4.95;;;2.30;;
3747;SDS011;1889;50.058;8.688;2022-07-06T02:24:06;4.37;;;1.90;;
3747;SDS011;1889;50.058;8.688;2022-07-06T02:26:35;2.25;;;1.90;;
3747;SDS011;1889;50.058;8.688;2022-07-06T02:29:04;2.20;;;2.00;;
3747;SDS011;1889;50.058;8.688;2022-07-06T02:31:33;2.10;;;1.90;;
3747;SDS011;1889;50.058;8.688;2022-07-06T02:34:03;4.33;;;1.87;;
3747;SDS011;1889;50.058;8.688;2022-07-06T02:36:35;4.87;;;2.13;;
3747;SDS011;1889;50.058;8.688;2022-07-06T02:39:02;3.53;;;2.00;;
3747;SDS011;1889;50.058;8.688;2022-07-06T02:41:31;2.50;;;2.03;;
3747;SDS011;1889;50.058;8.688;2022-07-06T02:44:00;4.20;;;2.20;;
3747;SDS011;1889;50.058;8.688;2022-07-06T02:46:30;2.98;;;2.40;;
3747;SDS011;1889;50.058;8.688;2022-07-06T02:48:59;3.80;;;1.90;;
3747;SDS011;1889;50.058;8.688;2022-07-06T02:51:28;5.50;;;2.02;;
3747;SDS011;1889;50.058;8.688;2022-07-06T02:53:58;4.45;;;2.02;;
3747;SDS011;1889;50.058;8.688;2022-07-06T02:56:27;3.05;;;2.10;;
3747;SDS011;1889;50.058;8.688;2022-07-06T02:58:56;3.72;;;2.10;;
3747;SDS011;1889;50.058;8.688;2022-07-06T03:01:26;3.27;;;1.80;;
3747;SDS011;1889;50.058;8.688;2022-07-06T03:03:55;2.25;;;1.80;;
3747;SDS011;1889;50.058;8.688;2022-07-06T03:06:24;2.60;;;2.02;;
3747;SDS011;1889;50.058;8.688;2022-07-06T03:08:54;3.85;;;2.08;;
3747;SDS011;1889;50.058;8.688;2022-07-06T03:11:23;2.62;;;2.25;;
3747;SDS011;1889;50.058;8.688;2022-07-06T03:13:52;2.72;;;2.05;;
3747;SDS011;1889;50.058;8.688;2022-07-06T03:16:21;3.60;;;2.10;;
3747;SDS011;1889;50.058;8.688;2022-07-06T03:18:51;4.83;;;2.33;;
3747;SDS011;1889;50.058;8.688;2022-07-06T03:21:20;3.12;;;1.87;;
3747;SDS011;1889;50.058;8.688;2022-07-06T03:23:49;2.62;;;2.40;;
3747;SDS011;1889;50.058;8.688;2022-07-06T03:26:19;5.62;;;2.30;;
3747;SDS011;1889;50.058;8.688;2022-07-06T03:28:48;2.90;;;2.65;;
3747;SDS011;1889;50.058;8.688;2022-07-06T03:31:17;5.45;;;2.17;;
3747;SDS011;1889;50.058;8.688;2022-07-06T03:33:47;2.08;;;1.98;;
3747;SDS011;1889;50.058;8.688;2022-07-06T03:36:16;2.50;;;2.10;;
3747;SDS011;1889;50.058;8.688;2022-07-06T03:38:45;4.17;;;2.87;;
3747;SDS011;1889;50.058;8.688;2022-07-06T03:41:15;4.17;;;3.35;;
3747;SDS011;1889;50.058;8.688;2022-07-06T03:43:44;3.98;;;2.20;;
3747;SDS011;1889;50.058;8.688;2022-07-06T03:46:13;2.85;;;2.33;;
3747;SDS011;1889;50.058;8.688;2022-07-06T03:48:43;3.20;;;2.10;;
3747;SDS011;1889;50.058;8.688;2022-07-06T03:51:12;3.35;;;2.40;;
3747;SDS011;1889;50.058;8.688;2022-07-06T03:53:41;2.77;;;2.00;;
3747;SDS011;1889;50.058;8.688;2022-07-06T03:56:11;2.17;;;1.95;;
3747;SDS011;1889;50.058;8.688;2022-07-06T03:58:59;3.90;;;2.20;;
3747;SDS011;1889;50.058;8.688;2022-07-06T04:01:29;3.40;;;1.95;;
3747;SDS011;1889;50.058;8.688;2022-07-06T04:03:59;3.15;;;2.00;;
3747;SDS011;1889;50.058;8.688;2022-07-06T04:06:28;3.85;;;2.80;;
3747;SDS011;1889;50.058;8.688;2022-07-06T04:08:58;11.08;;;8.35;;
3747;SDS011;1889;50.058;8.688;2022-07-06T04:11:27;22.27;;;14.45;;
3747;SDS011;1889;50.058;8.688;2022-07-06T04:13:57;23.77;;;14.87;;
3747;SDS011;1889;50.058;8.688;2022-07-06T04:16:26;18.15;;;14.28;;
3747;SDS011;1889;50.058;8.688;2022-07-06T04:18:55;33.13;;;26.70;;
3747;SDS011;1889;50.058;8.688;2022-07-06T04:21:25;17.82;;;13.08;;
3747;SDS011;1889;50.058;8.688;2022-07-06T04:23:54;11.50;;;8.40;;
3747;SDS011;1889;50.058;8.688;2022-07-06T04:26:23;10.50;;;7.50;;
3747;SDS011;1889;50.058;8.688;2022-07-06T04:28:53;8.78;;;5.90;;
3747;SDS011;1889;50.058;8.688;2022-07-06T04:31:22;8.93;;;4.20;;
3747;SDS011;1889;50.058;8.688;2022-07-06T04:33:51;5.75;;;3.87;;
3747;SDS011;1889;50.058;8.688;2022-07-06T04:36:20;4.70;;;3.30;;
3747;SDS011;1889;50.058;8.688;2022-07-06T04:38:50;9.48;;;3.10;;
3747;SDS011;1889;50.058;8.688;2022-07-06T04:41:19;5.62;;;2.40;;
3747;SDS011;1889;50.058;8.688;2022-07-06T04:43:48;3.75;;;2.55;;
3747;SDS011;1889;50.058;8.688;2022-07-06T04:46:18;2.80;;;2.05;;
3747;SDS011;1889;50.058;8.688;2022-07-06T04:48:47;2.47;;;2.17;;
3747;SDS011;1889;50.058;8.688;2022-07-06T04:51:17;3.98;;;2.22;;
3747;SDS011;1889;50.058;8.688;2022-07-06T04:53:46;2.83;;;2.05;;
3747;SDS011;1889;50.058;8.688;2022-07-06T04:56:15;4.92;;;1.98;;
3747;SDS011;1889;50.058;8.688;2022-07-06T04:58:45;3.25;;;1.98;;
3747;SDS011;1889;50.058;8.688;2022-07-06T05:01:14;3.80;;;1.92;;
3747;SDS011;1889;50.058;8.688;2022-07-06T05:03:43;2.98;;;1.90;;
3747;SDS011;1889;50.058;8.688;2022-07-06T05:06:13;4.78;;;2.02;;
3747;SDS011;1889;50.058;8.688;2022-07-06T05:08:43;3.35;;;2.20;;
3747;SDS011;1889;50.058;8.688;2022-07-06T05:11:12;4.03;;;2.15;;
3747;SDS011;1889;50.058;8.688;2022-07-06T05:13:42;2.67;;;2.10;;
3747;SDS011;1889;50.058;8.688;2022-07-06T05:16:11;5.08;;;2.05;;
3747;SDS011;1889;50.058;8.688;2022-07-06T05:18:40;2.60;;;1.85;;
3747;SDS011;1889;50.058;8.688;2022-07-06T05:21:10;5.05;;;2.27;;
3747;SDS011;1889;50.058;8.688;2022-07-06T05:23:39;3.10;;;2.15;;
3747;SDS011;1889;50.058;8.688;2022-07-06T05:26:08;2.30;;;2.10;;
3747;SDS011;1889;50.058;8.688;2022-07-06T05:28:38;4.83;;;2.10;;
3747;SDS011;1889;50.058;8.688;2022-07-06T05:31:07;4.53;;;2.20;;
3747;SDS011;1889;50.058;8.688;2022-07-06T05:33:36;2.65;;;2.45;;
3747;SDS011;1889;50.058;8.688;2022-07-06T05:36:06;5.60;;;2.25;;
3747;SDS011;1889;50.058;8.688;2022-07-06T05:38:35;5.97;;;2.70;;
3747;SDS011;1889;50.058;8.688;2022-07-06T05:41:04;5.25;;;2.08;;
3747;SDS011;1889;50.058;8.688;2022-07-06T05:43:36;3.80;;;2.33;;
3747;SDS011;1889;50.058;8.688;2022-07-06T05:46:06;4.50;;;2.35;;
3747;SDS011;1889;50.058;8.688;2022-07-06T05:48:35;2.62;;;2.42;;
3747;SDS011;1889;50.058;8.688;2022-07-06T05:51:22;5.40;;;2.60;;
3747;SDS011;1889;50.058;8.688;2022-07-06T05:53:57;5.72;;;2.22;;
3747;SDS011;1889;50.058;8.688;2022-07-06T05:56:22;3.95;;;2.70;;
3747;SDS011;1889;50.058;8.688;2022-07-06T05:58:51;4.33;;;2.50;;
3747;SDS011;1889;50.058;8.688;2022-07-06T06:01:20;4.83;;;2.67;;
3747;SDS011;1889;50.058;8.688;2022-07-06T06:03:50;4.15;;;2.35;;
3747;SDS011;1889;50.058;8.688;2022-07-06T06:06:19;3.47;;;2.12;;
3747;SDS011;1889;50.058;8.688;2022-07-06T06:08:48;3.27;;;2.45;;
3747;SDS011;1889;50.058;8.688;2022-07-06T06:11:18;3.02;;;2.42;;
3747;SDS011;1889;50.058;8.688;2022-07-06T06:13:47;4.50;;;2.67;;
3747;SDS011;1889;50.058;8.688;2022-07-06T06:16:16;5.45;;;3.00;;
3747;SDS011;1889;50.058;8.688;2022-07-06T06:18:46;3.40;;;2.05;;
3747;SDS011;1889;50.058;8.688;2022-07-06T06:21:15;6.55;;;2.90;;
3747;SDS011;1889;50.058;8.688;2022-07-06T06:23:44;6.08;;;2.20;;
3747;SDS011;1889;50.058;8.688;2022-07-06T06:26:13;5.37;;;2.80;;
3747;SDS011;1889;50.058;8.688;2022-07-06T06:28:43;3.27;;;2.27;;
3747;SDS011;1889;50.058;8.688;2022-07-06T06:31:12;2.63;;;2.20;;
3747;SDS011;1889;50.058;8.688;2022-07-06T06:33:41;2.93;;;2.57;;
3747;SDS011;1889;50.058;8.688;2022-07-06T06:36:10;3.08;;;2.77;;
3747;SDS011;1889;50.058;8.688;2022-07-06T06:38:40;3.35;;;2.80;;
3747;SDS011;1889;50.058;8.688;2022-07-06T06:41:09;7.20;;;2.85;;
3747;SDS011;1889;50.058;8.688;2022-07-06T06:43:39;3.13;;;2.67;;
3747;SDS011;1889;50.058;8.688;2022-07-06T06:46:08;3.80;;;2.90;;
3747;SDS011;1889;50.058;8.688;2022-07-06T06:48:37;3.87;;;2.60;;
3747;SDS011;1889;50.058;8.688;2022-07-06T06:51:07;3.10;;;2.87;;
3747;SDS011;1889;50.058;8.688;2022-07-06T06:53:36;5.40;;;3.53;;
3747;SDS011;1889;50.058;8.688;2022-07-06T06:56:05;3.02;;;2.60;;
3747;SDS011;1889;50.058;8.688;2022-07-06T06:58:36;3.33;;;2.58;;
3747;SDS011;1889;50.058;8.688;2022-07-06T07:01:05;4.70;;;2.70;;
3747;SDS011;1889;50.058;8.688;2022-07-06T07:03:34;4.10;;;2.70;;
3747;SDS011;1889;50.058;8.688;2022-07-06T07:06:03;7.33;;;2.50;;
3747;SDS011;1889;50.058;8.688;2022-07-06T07:08:33;5.60;;;2.67;;
3747;SDS011;1889;50.058;8.688;2022-07-06T07:11:02;4.97;;;2.67;;
3747;SDS011;1889;50.058;8.688;2022-07-06T07:13:31;3.73;;;2.80;;
3747;SDS011;1889;50.058;8.688;2022-07-06T07:16:00;5.33;;;3.30;;
3747;SDS011;1889;50.058;8.688;2022-07-06T07:18:29;5.07;;;2.90;;
3747;SDS011;1889;50.058;8.688;2022-07-06T07:20:58;3.10;;;2.80;;
3747;SDS011;1889;50.058;8.688;2022-07-06T07:23:27;7.80;;;3.10;;
3747;SDS011;1889;50.058;8.688;2022-07-06T07:25:57;5.67;;;3.97;;
3747;SDS011;1889;50.058;8.688;2022-07-06T07:28:26;4.47;;;3.33;;
3747;SDS011;1889;50.058;8.688;2022-07-06T07:30:55;3.50;;;2.83;;
3747;SDS011;1889;50.058;8.688;2022-07-06T07:33:26;5.55;;;3.52;;
3747;SDS011;1889;50.058;8.688;2022-07-06T07:35:55;4.45;;;2.85;;
3747;SDS011;1889;50.058;8.688;2022-07-06T07:38:24;3.93;;;2.87;;
3747;SDS011;1889;50.058;8.688;2022-07-06T07:40:54;4.03;;;3.27;;
3747;SDS011;1889;50.058;8.688;2022-07-06T07:43:23;2.90;;;2.50;;
3747;SDS011;1889;50.058;8.688;2022-07-06T07:45:52;4.03;;;2.77;;
3747;SDS011;1889;50.058;8.688;2022-07-06T07:48:21;2.77;;;2.47;;
3747;SDS011;1889;50.058;8.688;2022-07-06T07:50:50;5.42;;;3.12;;
3747;SDS011;1889;50.058;8.688;2022-07-06T07:53:20;4.92;;;3.12;;
3747;SDS011;1889;50.058;8.688;2022-07-06T07:55:49;3.90;;;3.60;;
3747;SDS011;1889;50.058;8.688;2022-07-06T07:58:18;3.30;;;3.00;;
3747;SDS011;1889;50.058;8.688;2022-07-06T08:00:47;3.20;;;2.90;;
3747;SDS011;1889;50.058;8.688;2022-07-06T08:03:16;6.37;;;3.03;;
3747;SDS011;1889;50.058;8.688;2022-07-06T08:05:45;6.67;;;3.03;;
3747;SDS011;1889;50.058;8.688;2022-07-06T08:08:15;5.43;;;3.63;;
3747;SDS011;1889;50.058;8.688;2022-07-06T08:10:44;4.05;;;2.83;;
3747;SDS011;1889;50.058;8.688;2022-07-06T08:13:13;3.63;;;3.33;;
3747;SDS011;1889;50.058;8.688;2022-07-06T08:15:42;6.10;;;2.87;;
3747;SDS011;1889;50.058;8.688;2022-07-06T08:18:12;4.75;;;2.80;;
3747;SDS011;1889;50.058;8.688;2022-07-06T08:20:41;3.98;;;3.02;;
3747;SDS011;1889;50.058;8.688;2022-07-06T08:23:10;3.63;;;3.00;;
3747;SDS011;1889;50.058;8.688;2022-07-06T08:25:40;5.67;;;3.17;;
3747;SDS011;1889;50.058;8.688;2022-07-06T08:28:09;3.03;;;2.73;;
3747;SDS011;1889;50.058;8.688;2022-07-06T08:30:38;4.95;;;2.87;;
3747;SDS011;1889;50.058;8.688;2022-07-06T08:33:07;5.90;;;3.00;;
3747;SDS011;1889;50.058;8.688;2022-07-06T08:35:36;4.60;;;2.63;;
3747;SDS011;1889;50.058;8.688;2022-07-06T08:38:05;5.23;;;3.17;;
3747;SDS011;1889;50.058;8.688;2022-07-06T08:40:34;5.33;;;3.30;;
3747;SDS011;1889;50.058;8.688;2022-07-06T08:43:05;10.80;;;4.37;;
3747;SDS011;1889;50.058;8.688;2022-07-06T08:45:34;7.43;;;3.00;;
3747;SDS011;1889;50.058;8.688;2022-07-06T08:48:05;5.78;;;3.50;;
3747;SDS011;1889;50.058;8.688;2022-07-06T08:50:35;3.30;;;2.60;;
3747;SDS011;1889;50.058;8.688;2022-07-06T08:53:04;4.60;;;3.20;;
3747;SDS011;1889;50.058;8.688;2022-07-06T08:55:33;7.73;;;3.97;;
3747;SDS011;1889;50.058;8.688;2022-07-06T08:58:03;3.60;;;3.30;;
3747;SDS011;1889;50.058;8.688;2022-07-06T09:00:33;5.03;;;3.17;;
3747;SDS011;1889;50.058;8.688;2022-07-06T09:03:04;3.83;;;2.93;;
3747;SDS011;1889;50.058;8.688;2022-07-06T09:05:34;8.87;;;3.40;;
3747;SDS011;1889;50.058;8.688;2022-07-06T09:08:04;5.33;;;3.23;;
3747;SDS011;1889;50.058;8.688;2022-07-06T09:10:33;4.50;;;3.33;;
3747;SDS011;1889;50.058;8.688;2022-07-06T09:13:05;4.93;;;3.17;;
3747;SDS011;1889;50.058;8.688;2022-07-06T09:15:36;3.73;;;2.97;;
3747;SDS011;1889;50.058;8.688;2022-07-06T09:18:08;4.97;;;3.00;;
3747;SDS011;1889;50.058;8.688;2022-07-06T09:20:37;6.87;;;3.23;;
3747;SDS011;1889;50.058;8.688;2022-07-06T09:23:10;6.77;;;3.03;;
3747;SDS011;1889;50.058;8.688;2022-07-06T09:25:48;6.20;;;2.70;;
3747;SDS011;1889;50.058;8.688;2022-07-06T09:28:18;6.33;;;3.20;;
3747;SDS011;1889;50.058;8.688;2022-07-06T09:30:47;5.13;;;2.87;;
3747;SDS011;1889;50.058;8.688;2022-07-06T09:33:19;6.77;;;3.00;;
3747;SDS011;1889;50.058;8.688;2022-07-06T09:35:48;4.87;;;2.97;;
3747;SDS011;1889;50.058;8.688;2022-07-06T09:38:18;3.43;;;2.70;;
3747;SDS011;1889;50.058;8.688;2022-07-06T09:40:47;4.13;;;3.20;;
3747;SDS011;1889;50.058;8.688;2022-07-06T09:43:17;3.90;;;2.70;;
3747;SDS011;1889;50.058;8.688;2022-07-06T09:45:49;3.33;;;2.93;;
3747;SDS011;1889;50.058;8.688;2022-07-06T09:48:20;3.07;;;2.50;;
3747;SDS011;1889;50.058;8.688;2022-07-06T09:50:57;5.77;;;3.07;;
3747;SDS011;1889;50.058;8.688;2022-07-06T09:53:29;4.57;;;2.80;;
3747;SDS011;1889;50.058;8.688;2022-07-06T09:55:58;4.77;;;2.93;;
3747;SDS011;1889;50.058;8.688;2022-07-06T09:58:28;5.10;;;2.73;;
3747;SDS011;1889;50.058;8.688;2022-07-06T10:00:58;4.00;;;2.80;;
3747;SDS011;1889;50.058;8.688;2022-07-06T10:03:27;4.80;;;2.20;;
3747;SDS011;1889;50.058;8.688;2022-07-06T10:05:58;3.73;;;2.10;;
3747;SDS011;1889;50.058;8.688;2022-07-06T10:08:27;3.27;;;2.20;;
3747;SDS011;1889;50.058;8.688;2022-07-06T10:10:59;2.93;;;2.27;;
3747;SDS011;1889;50.058;8.688;2022-07-06T10:13:29;2.13;;;2.00;;
3747;SDS011;1889;50.058;8.688;2022-07-06T10:15:57;2.97;;;1.90;;
3747;SDS011;1889;50.058;8.688;2022-07-06T10:18:27;2.10;;;1.90;;
3747;SDS011;1889;50.058;8.688;2022-07-06T10:20:56;2.80;;;1.83;;
3747;SDS011;1889;50.058;8.688;2022-07-06T10:23:25;3.20;;;1.80;;
3747;SDS011;1889;50.058;8.688;2022-07-06T10:25:56;1.97;;;1.70;;
3747;SDS011;1889;50.058;8.688;2022-07-06T10:28:26;1.53;;;1.43;;
3747;SDS011;1889;50.058;8.688;2022-07-06T10:30:55;1.50;;;1.40;;
3747;SDS011;1889;50.058;8.688;2022-07-06T10:33:25;1.63;;;1.53;;
3747;SDS011;1889;50.058;8.688;2022-07-06T10:35:55;3.70;;;1.60;;
3747;SDS011;1889;50.058;8.688;2022-07-06T10:38:31;2.83;;;1.70;;
3747;SDS011;1889;50.058;8.688;2022-07-06T10:41:04;2.43;;;1.70;;
3747;SDS011;1889;50.058;8.688;2022-07-06T10:43:37;2.70;;;1.70;;
3747;SDS011;1889;50.058;8.688;2022-07-06T10:46:11;1.67;;;1.20;;
3747;SDS011;1889;50.058;8.688;2022-07-06T10:48:48;1.83;;;1.53;;
3747;SDS011;1889;50.058;8.688;2022-07-06T10:51:23;2.50;;;1.53;;
3747;SDS011;1889;50.058;8.688;2022-07-06T10:53:56;2.27;;;1.87;;
3747;SDS011;1889;50.058;8.688;2022-07-06T10:56:32;2.27;;;1.73;;
3747;SDS011;1889;50.058;8.688;2022-07-06T10:59:15;1.67;;;1.40;;
3747;SDS011;1889;50.058;8.688;2022-07-06T11:02:29;1.50;;;1.40;;
3747;SDS011;1889;50.058;8.688;2022-07-06T11:04:35;2.33;;;1.40;;
3747;SDS011;1889;50.058;8.688;2022-07-06T11:07:15;1.53;;;1.40;;
3747;SDS011;1889;50.058;8.688;2022-07-06T11:09:40;3.87;;;1.90;;
3747;SDS011;1889;50.058;8.688;2022-07-06T11:12:19;1.90;;;1.20;;
3747;SDS011;1889;50.058;8.688;2022-07-06T11:14:49;9.57;;;1.90;;
3747;SDS011;1889;50.058;8.688;2022-07-06T11:17:20;1.63;;;1.20;;
3747;SDS011;1889;50.058;8.688;2022-07-06T11:19:50;2.07;;;0.83;;
3747;SDS011;1889;50.058;8.688;2022-07-06T11:22:26;1.03;;;0.97;;
3747;SDS011;1889;50.058;8.688;2022-07-06T11:24:57;2.90;;;1.20;;
3747;SDS011;1889;50.058;8.688;2022-07-06T11:27:26;2.80;;;1.30;;
3747;SDS011;1889;50.058;8.688;2022-07-06T11:29:55;2.67;;;1.20;;
3747;SDS011;1889;50.058;8.688;2022-07-06T11:32:25;3.27;;;1.40;;
3747;SDS011;1889;50.058;8.688;2022-07-06T11:34:54;2.10;;;1.20;;
3747;SDS011;1889;50.058;8.688;2022-07-06T11:37:25;4.20;;;2.00;;
3747;SDS011;1889;50.058;8.688;2022-07-06T11:39:54;3.67;;;1.63;;
3747;SDS011;1889;50.058;8.688;2022-07-06T11:42:23;4.53;;;2.33;;
3747;SDS011;1889;50.058;8.688;2022-07-06T11:44:52;2.50;;;1.93;;
3747;SDS011;1889;50.058;8.688;2022-07-06T11:47:29;3.30;;;1.77;;
3747;SDS011;1889;50.058;8.688;2022-07-06T11:49:54;3.83;;;2.30;;
3747;SDS011;1889;50.058;8.688;2022-07-06T11:52:23;2.67;;;1.90;;
3747;SDS011;1889;50.058;8.688;2022-07-06T11:55:03;5.27;;;1.80;;
3747;SDS011;1889;50.058;8.688;2022-07-06T11:57:30;2.27;;;1.90;;
3747;SDS011;1889;50.058;8.688;2022-07-06T12:00:00;1.87;;;1.70;;
3747;SDS011;1889;50.058;8.688;2022-07-06T12:02:29;2.07;;;1.87;;
3747;SDS011;1889;50.058;8.688;2022-07-06T12:04:58;2.40;;;1.60;;
3747;SDS011;1889;50.058;8.688;2022-07-06T12:07:27;2.67;;;2.00;;
3747;SDS011;1889;50.058;8.688;2022-07-06T12:09:56;3.23;;;1.90;;
3747;SDS011;1889;50.058;8.688;2022-07-06T12:12:25;3.10;;;2.00;;
3747;SDS011;1889;50.058;8.688;2022-07-06T12:14:54;3.30;;;2.10;;
3747;SDS011;1889;50.058;8.688;2022-07-06T12:17:24;2.43;;;2.23;;
3747;SDS011;1889;50.058;8.688;2022-07-06T12:19:53;4.43;;;1.93;;
3747;SDS011;1889;50.058;8.688;2022-07-06T12:22:25;2.80;;;1.73;;
3747;SDS011;1889;50.058;8.688;2022-07-06T12:24:54;2.70;;;1.90;;
3747;SDS011;1889;50.058;8.688;2022-07-06T12:27:23;1.93;;;1.40;;
3747;SDS011;1889;50.058;8.688;2022-07-06T12:29:52;2.03;;;1.60;;
3747;SDS011;1889;50.058;8.688;2022-07-06T12:32:23;2.10;;;1.50;;
3747;SDS011;1889;50.058;8.688;2022-07-06T12:35:06;1.90;;;1.60;;
3747;SDS011;1889;50.058;8.688;2022-07-06T12:37:36;2.07;;;1.40;;
3747;SDS011;1889;50.058;8.688;2022-07-06T12:40:12;5.27;;;2.07;;
3747;SDS011;1889;50.058;8.688;2022-07-06T12:42:50;2.47;;;1.80;;
3747;SDS011;1889;50.058;8.688;2022-07-06T12:45:15;2.43;;;1.53;;
3747;SDS011;1889;50.058;8.688;2022-07-06T12:48:04;8.30;;;1.67;;
3747;SDS011;1889;50.058;8.688;2022-07-06T12:50:34;1.33;;;1.30;;
3747;SDS011;1889;50.058;8.688;2022-07-06T12:53:23;1.67;;;1.57;;
3747;SDS011;1889;50.058;8.688;2022-07-06T12:56:15;1.80;;;1.20;;
3747;SDS011;1889;50.058;8.688;2022-07-06T12:58:54;1.90;;;1.47;;
3747;SDS011;1889;50.058;8.688;2022-07-06T13:01:27;3.70;;;1.50;;
3747;SDS011;1889;50.058;8.688;2022-07-06T13:03:56;2.17;;;1.40;;
3747;SDS011;1889;50.058;8.688;2022-07-06T13:06:29;4.37;;;1.43;;
3747;SDS011;1889;50.058;8.688;2022-07-06T13:09:01;5.17;;;2.13;;
3747;SDS011;1889;50.058;8.688;2022-07-06T13:11:30;2.47;;;1.30;;
3747;SDS011;1889;50.058;8.688;2022-07-06T13:14:00;2.93;;;1.33;;
3747;SDS011;1889;50.058;8.688;2022-07-06T13:16:29;2.40;;;1.30;;
3747;SDS011;1889;50.058;8.688;2022-07-06T13:19:00;5.97;;;1.30;;
3747;SDS011;1889;50.058;8.688;2022-07-06T13:21:30;3.23;;;1.30;;
3747;SDS011;1889;50.058;8.688;2022-07-06T13:23:59;1.13;;;1.03;;
3747;SDS011;1889;50.058;8.688;2022-07-06T13:26:28;1.20;;;1.10;;
3747;SDS011;1889;50.058;8.688;2022-07-06T13:29:03;1.77;;;1.30;;
3747;SDS011;1889;50.058;8.688;2022-07-06T13:31:32;2.37;;;1.37;;
3747;SDS011;1889;50.058;8.688;2022-07-06T13:34:01;3.13;;;1.20;;
3747;SDS011;1889;50.058;8.688;2022-07-06T13:36:31;1.57;;;1.20;;
3747;SDS011;1889;50.058;8.688;2022-07-06T13:39:00;1.50;;;1.40;;
3747;SDS011;1889;50.058;8.688;2022-07-06T13:41:30;1.60;;;1.03;;
3747;SDS011;1889;50.058;8.688;2022-07-06T13:44:00;1.77;;;1.07;;
3747;SDS011;1889;50.058;8.688;2022-07-06T13:46:30;1.63;;;1.30;;
3747;SDS011;1889;50.058;8.688;2022-07-06T13:48:59;1.57;;;1.00;;
3747;SDS011;1889;50.058;8.688;2022-07-06T13:51:28;1.17;;;1.10;;
3747;SDS011;1889;50.058;8.688;2022-07-06T13:53:59;2.10;;;1.27;;
3747;SDS011;1889;50.058;8.688;2022-07-06T13:56:28;4.30;;;1.50;;
3747;SDS011;1889;50.058;8.688;2022-07-06T13:58:57;1.50;;;1.40;;
3747;SDS011;1889;50.058;8.688;2022-07-06T14:01:27;1.97;;;1.30;;
3747;SDS011;1889;50.058;8.688;2022-07-06T14:03:56;1.80;;;1.40;;
3747;SDS011;1889;50.058;8.688;2022-07-06T14:06:25;1.13;;;1.10;;
3747;SDS011;1889;50.058;8.688;2022-07-06T14:08:54;1.57;;;1.47;;
3747;SDS011;1889;50.058;8.688;2022-07-06T14:11:23;2.93;;;1.70;;
3747;SDS011;1889;50.058;8.688;2022-07-06T14:13:52;2.80;;;1.40;;
3747;SDS011;1889;50.058;8.688;2022-07-06T14:16:21;1.40;;;1.30;;
3747;SDS011;1889;50.058;8.688;2022-07-06T14:18:50;3.23;;;1.50;;
3747;SDS011;1889;50.058;8.688;2022-07-06T14:21:19;1.20;;;1.10;;
3747;SDS011;1889;50.058;8.688;2022-07-06T14:23:49;1.50;;;1.30;;
3747;SDS011;1889;50.058;8.688;2022-07-06T14:26:18;1.80;;;1.50;;
3747;SDS011;1889;50.058;8.688;2022-07-06T14:28:47;1.80;;;1.47;;
3747;SDS011;1889;50.058;8.688;2022-07-06T14:31:16;1.93;;;1.27;;
3747;SDS011;1889;50.058;8.688;2022-07-06T14:33:45;1.77;;;1.67;;
3747;SDS011;1889;50.058;8.688;2022-07-06T14:36:14;1.23;;;1.13;;
3747;SDS011;1889;50.058;8.688;2022-07-06T14:38:43;6.43;;;1.50;;
3747;SDS011;1889;50.058;8.688;2022-07-06T14:41:12;8.87;;;2.10;;
3747;SDS011;1889;50.058;8.688;2022-07-06T14:43:41;2.43;;;1.30;;
3747;SDS011;1889;50.058;8.688;2022-07-06T14:46:12;2.17;;;1.30;;
3747;SDS011;1889;50.058;8.688;2022-07-06T14:48:41;2.20;;;1.20;;
3747;SDS011;1889;50.058;8.688;2022-07-06T14:51:10;1.33;;;1.20;;
3747;SDS011;1889;50.058;8.688;2022-07-06T14:53:41;1.67;;;1.20;;
3747;SDS011;1889;50.058;8.688;2022-07-06T14:56:10;1.40;;;1.30;;
3747;SDS011;1889;50.058;8.688;2022-07-06T14:58:39;5.07;;;4.07;;
3747;SDS011;1889;50.058;8.688;2022-07-06T15:01:08;2.47;;;1.50;;
3747;SDS011;1889;50.058;8.688;2022-07-06T15:03:37;2.17;;;1.93;;
3747;SDS011;1889;50.058;8.688;2022-07-06T15:06:06;2.80;;;2.50;;
3747;SDS011;1889;50.058;8.688;2022-07-06T15:08:36;4.83;;;1.70;;
3747;SDS011;1889;50.058;8.688;2022-07-06T15:11:05;2.70;;;1.40;;
3747;SDS011;1889;50.058;8.688;2022-07-06T15:13:34;2.77;;;1.53;;
3747;SDS011;1889;50.058;8.688;2022-07-06T15:16:03;1.60;;;1.50;;
3747;SDS011;1889;50.058;8.688;2022-07-06T15:18:33;1.60;;;1.50;;
3747;SDS011;1889;50.058;8.688;2022-07-06T15:21:02;4.17;;;1.60;;
3747;SDS011;1889;50.058;8.688;2022-07-06T15:23:31;2.73;;;1.50;;
3747;SDS011;1889;50.058;8.688;2022-07-06T15:26:01;3.87;;;1.70;;
3747;SDS011;1889;50.058;8.688;2022-07-06T15:28:31;2.83;;;1.70;;
3747;SDS011;1889;50.058;8.688;2022-07-06T15:31:00;4.97;;;4.40;;
3747;SDS011;1889;50.058;8.688;2022-07-06T15:33:29;5.93;;;2.73;;